KLDM/LDM METAR and TAF weather

Enter ICAO airport designator
Station Type Date Time Source
KLDM METAR 2019/06/20 06:56 UTC NOAA

KLDM 200656Z AUTO 02004KT 10SM -RA SCT041 BKN049 OVC055 15/14 A2967 RMK AO2 P0000 T01450137


Station Type Date Time Source
KLDM Decoded METAR 2019/06/20 06:56 UTC NOAA

Ludington, Mason County Airport, MI, United States (KLDM) 43-58N 86-24W
Jun 20, 2019 - 02:56 AM EDT / 2019.06.20 0656 UTC
Wind: from the NNE (020 degrees) at 5 MPH (4 KT):0
Visibility: 10 mile(s):0
Sky conditions: overcast
Weather: light rain
Precipitation last hour: A trace
Temperature: 58.1 F (14.5 C)
Dew Point: 56.7 F (13.7 C)
Relative Humidity: 94%
Pressure (altimeter): 29.67 in. Hg (1004 hPa)
ob: KLDM 200656Z AUTO 02004KT 10SM -RA SCT041 BKN049 OVC055 15/14 A2967 RMK AO2 P0000 T01450137
cycle: 7

Station Type Date Time Source
KLDM TAF UTC NOAA

Error!

Example: see airport list